sensor_id;sensor_type;location;lat;lon;timestamp;P1;durP1;ratioP1;P2;durP2;ratioP2
72557;SDS011;60583;50.094;8.748;2022-12-29T00:01:27;5.00;;;1.88;;
72557;SDS011;60583;50.094;8.748;2022-12-29T00:03:53;4.88;;;2.00;;
72557;SDS011;60583;50.094;8.748;2022-12-29T00:06:18;4.35;;;2.17;;
72557;SDS011;60583;50.094;8.748;2022-12-29T00:08:43;4.88;;;1.95;;
72557;SDS011;60583;50.094;8.748;2022-12-29T00:11:11;4.15;;;2.10;;
72557;SDS011;60583;50.094;8.748;2022-12-29T00:13:38;4.72;;;2.10;;
72557;SDS011;60583;50.094;8.748;2022-12-29T00:16:22;3.38;;;1.98;;
72557;SDS011;60583;50.094;8.748;2022-12-29T00:18:47;4.25;;;2.20;;
72557;SDS011;60583;50.094;8.748;2022-12-29T00:21:14;4.65;;;2.10;;
72557;SDS011;60583;50.094;8.748;2022-12-29T00:23:59;4.53;;;1.92;;
72557;SDS011;60583;50.094;8.748;2022-12-29T00:26:44;5.57;;;2.05;;
72557;SDS011;60583;50.094;8.748;2022-12-29T00:29:29;4.38;;;2.05;;
72557;SDS011;60583;50.094;8.748;2022-12-29T00:32:13;4.32;;;1.95;;
72557;SDS011;60583;50.094;8.748;2022-12-29T00:34:57;6.00;;;2.03;;
72557;SDS011;60583;50.094;8.748;2022-12-29T00:37:37;4.35;;;2.20;;
72557;SDS011;60583;50.094;8.748;2022-12-29T00:40:27;4.65;;;2.10;;
72557;SDS011;60583;50.094;8.748;2022-12-29T00:43:11;4.45;;;2.10;;
72557;SDS011;60583;50.094;8.748;2022-12-29T00:45:55;4.13;;;1.90;;
72557;SDS011;60583;50.094;8.748;2022-12-29T00:48:20;5.25;;;2.10;;
72557;SDS011;60583;50.094;8.748;2022-12-29T00:51:04;4.05;;;1.73;;
72557;SDS011;60583;50.094;8.748;2022-12-29T00:53:30;4.28;;;1.60;;
72557;SDS011;60583;50.094;8.748;2022-12-29T00:55:55;3.88;;;1.80;;
72557;SDS011;60583;50.094;8.748;2022-12-29T00:58:20;4.53;;;2.10;;
72557;SDS011;60583;50.094;8.748;2022-12-29T01:00:46;5.78;;;1.80;;
72557;SDS011;60583;50.094;8.748;2022-12-29T01:03:11;4.88;;;1.70;;
72557;SDS011;60583;50.094;8.748;2022-12-29T01:05:37;6.07;;;1.90;;
72557;SDS011;60583;50.094;8.748;2022-12-29T01:08:02;3.58;;;1.70;;
72557;SDS011;60583;50.094;8.748;2022-12-29T01:10:28;5.13;;;1.70;;
72557;SDS011;60583;50.094;8.748;2022-12-29T01:12:55;4.22;;;1.80;;
72557;SDS011;60583;50.094;8.748;2022-12-29T01:15:20;3.25;;;1.65;;
72557;SDS011;60583;50.094;8.748;2022-12-29T01:17:46;3.72;;;1.90;;
72557;SDS011;60583;50.094;8.748;2022-12-29T01:20:11;4.20;;;1.50;;
72557;SDS011;60583;50.094;8.748;2022-12-29T01:22:38;4.10;;;1.70;;
72557;SDS011;60583;50.094;8.748;2022-12-29T01:25:04;3.90;;;1.40;;
72557;SDS011;60583;50.094;8.748;2022-12-29T01:27:30;4.45;;;1.40;;
72557;SDS011;60583;50.094;8.748;2022-12-29T01:29:55;3.80;;;1.90;;
72557;SDS011;60583;50.094;8.748;2022-12-29T01:32:21;4.63;;;1.63;;
72557;SDS011;60583;50.094;8.748;2022-12-29T01:34:46;5.88;;;2.58;;
72557;SDS011;60583;50.094;8.748;2022-12-29T01:37:11;3.47;;;1.58;;
72557;SDS011;60583;50.094;8.748;2022-12-29T01:39:37;4.03;;;1.40;;
72557;SDS011;60583;50.094;8.748;2022-12-29T01:42:02;4.00;;;1.70;;
72557;SDS011;60583;50.094;8.748;2022-12-29T01:47:19;3.85;;;1.40;;
72557;SDS011;60583;50.094;8.748;2022-12-29T01:49:52;3.88;;;1.60;;
72557;SDS011;60583;50.094;8.748;2022-12-29T01:52:19;3.63;;;1.30;;
72557;SDS011;60583;50.094;8.748;2022-12-29T01:54:49;3.08;;;1.38;;
72557;SDS011;60583;50.094;8.748;2022-12-29T01:57:23;3.13;;;1.30;;
72557;SDS011;60583;50.094;8.748;2022-12-29T01:59:54;3.92;;;1.38;;
72557;SDS011;60583;50.094;8.748;2022-12-29T02:02:23;2.88;;;1.48;;
72557;SDS011;60583;50.094;8.748;2022-12-29T02:04:49;3.53;;;1.40;;
72557;SDS011;60583;50.094;8.748;2022-12-29T02:07:19;4.25;;;1.25;;
72557;SDS011;60583;50.094;8.748;2022-12-29T02:09:47;3.35;;;1.30;;
72557;SDS011;60583;50.094;8.748;2022-12-29T02:12:15;3.45;;;1.17;;
72557;SDS011;60583;50.094;8.748;2022-12-29T02:14:42;3.33;;;1.27;;
72557;SDS011;60583;50.094;8.748;2022-12-29T02:17:11;3.00;;;1.20;;
72557;SDS011;60583;50.094;8.748;2022-12-29T02:39:46;2.55;;;1.13;;
72557;SDS011;60583;50.094;8.748;2022-12-29T02:44:55;3.50;;;0.90;;
72557;SDS011;60583;50.094;8.748;2022-12-29T02:47:35;3.55;;;1.20;;
72557;SDS011;60583;50.094;8.748;2022-12-29T02:50:19;2.28;;;0.80;;
72557;SDS011;60583;50.094;8.748;2022-12-29T02:53:00;2.30;;;0.80;;
72557;SDS011;60583;50.094;8.748;2022-12-29T02:55:29;2.15;;;0.88;;
72557;SDS011;60583;50.094;8.748;2022-12-29T03:00:40;2.53;;;0.90;;
72557;SDS011;60583;50.094;8.748;2022-12-29T03:03:30;2.50;;;0.95;;
72557;SDS011;60583;50.094;8.748;2022-12-29T03:06:12;1.75;;;0.70;;
72557;SDS011;60583;50.094;8.748;2022-12-29T03:15:03;2.53;;;0.93;;
72557;SDS011;60583;50.094;8.748;2022-12-29T03:17:56;2.22;;;0.80;;
72557;SDS011;60583;50.094;8.748;2022-12-29T03:20:49;1.85;;;0.77;;
72557;SDS011;60583;50.094;8.748;2022-12-29T03:23:17;4.30;;;1.30;;
72557;SDS011;60583;50.094;8.748;2022-12-29T03:25:46;4.00;;;1.08;;
72557;SDS011;60583;50.094;8.748;2022-12-29T03:28:20;3.17;;;1.10;;
72557;SDS011;60583;50.094;8.748;2022-12-29T03:30:49;2.58;;;0.80;;
72557;SDS011;60583;50.094;8.748;2022-12-29T03:33:17;3.95;;;1.10;;
72557;SDS011;60583;50.094;8.748;2022-12-29T03:35:45;2.88;;;1.20;;
72557;SDS011;60583;50.094;8.748;2022-12-29T03:38:16;2.97;;;1.33;;
72557;SDS011;60583;50.094;8.748;2022-12-29T03:40:48;2.83;;;0.90;;
72557;SDS011;60583;50.094;8.748;2022-12-29T03:43:16;4.10;;;1.35;;
72557;SDS011;60583;50.094;8.748;2022-12-29T03:45:42;2.53;;;1.13;;
72557;SDS011;60583;50.094;8.748;2022-12-29T03:48:08;2.85;;;1.08;;
72557;SDS011;60583;50.094;8.748;2022-12-29T03:50:33;2.40;;;1.00;;
72557;SDS011;60583;50.094;8.748;2022-12-29T03:52:58;2.42;;;1.10;;
72557;SDS011;60583;50.094;8.748;2022-12-29T03:55:24;3.00;;;1.10;;
72557;SDS011;60583;50.094;8.748;2022-12-29T03:57:49;3.58;;;1.45;;
72557;SDS011;60583;50.094;8.748;2022-12-29T04:00:15;3.50;;;1.45;;
72557;SDS011;60583;50.094;8.748;2022-12-29T04:02:40;5.13;;;1.80;;
72557;SDS011;60583;50.094;8.748;2022-12-29T04:05:06;4.53;;;1.30;;
72557;SDS011;60583;50.094;8.748;2022-12-29T04:07:32;3.35;;;1.30;;
72557;SDS011;60583;50.094;8.748;2022-12-29T04:09:57;3.65;;;1.30;;
72557;SDS011;60583;50.094;8.748;2022-12-29T04:12:23;3.45;;;1.00;;
72557;SDS011;60583;50.094;8.748;2022-12-29T04:14:48;3.28;;;1.38;;
72557;SDS011;60583;50.094;8.748;2022-12-29T04:17:13;2.70;;;1.02;;
72557;SDS011;60583;50.094;8.748;2022-12-29T04:19:39;3.63;;;1.02;;
72557;SDS011;60583;50.094;8.748;2022-12-29T04:22:04;2.92;;;1.10;;
72557;SDS011;60583;50.094;8.748;2022-12-29T04:24:30;3.38;;;1.20;;
72557;SDS011;60583;50.094;8.748;2022-12-29T04:26:55;3.30;;;1.10;;
72557;SDS011;60583;50.094;8.748;2022-12-29T04:29:21;4.05;;;1.15;;
72557;SDS011;60583;50.094;8.748;2022-12-29T04:31:46;3.97;;;1.25;;
72557;SDS011;60583;50.094;8.748;2022-12-29T04:34:11;4.05;;;1.75;;
72557;SDS011;60583;50.094;8.748;2022-12-29T04:36:37;3.38;;;1.20;;
72557;SDS011;60583;50.094;8.748;2022-12-29T04:39:04;3.90;;;1.40;;
72557;SDS011;60583;50.094;8.748;2022-12-29T04:41:30;4.03;;;1.23;;
72557;SDS011;60583;50.094;8.748;2022-12-29T04:43:56;4.03;;;1.17;;
72557;SDS011;60583;50.094;8.748;2022-12-29T04:46:21;3.33;;;1.10;;
72557;SDS011;60583;50.094;8.748;2022-12-29T04:48:47;2.72;;;1.17;;
72557;SDS011;60583;50.094;8.748;2022-12-29T04:51:12;3.17;;;1.05;;
72557;SDS011;60583;50.094;8.748;2022-12-29T04:53:38;4.22;;;1.40;;
72557;SDS011;60583;50.094;8.748;2022-12-29T04:56:04;5.30;;;1.77;;
72557;SDS011;60583;50.094;8.748;2022-12-29T04:58:29;3.67;;;1.10;;
72557;SDS011;60583;50.094;8.748;2022-12-29T05:00:54;3.28;;;1.27;;
72557;SDS011;60583;50.094;8.748;2022-12-29T05:03:20;2.78;;;1.15;;
72557;SDS011;60583;50.094;8.748;2022-12-29T05:05:45;3.10;;;1.17;;
72557;SDS011;60583;50.094;8.748;2022-12-29T05:08:11;3.20;;;1.08;;
72557;SDS011;60583;50.094;8.748;2022-12-29T05:10:36;2.72;;;0.90;;
72557;SDS011;60583;50.094;8.748;2022-12-29T05:13:02;3.63;;;1.15;;
72557;SDS011;60583;50.094;8.748;2022-12-29T05:15:27;3.72;;;1.30;;
72557;SDS011;60583;50.094;8.748;2022-12-29T05:17:53;2.70;;;0.95;;
72557;SDS011;60583;50.094;8.748;2022-12-29T05:20:18;4.72;;;1.10;;
72557;SDS011;60583;50.094;8.748;2022-12-29T05:22:44;3.38;;;1.20;;
72557;SDS011;60583;50.094;8.748;2022-12-29T05:25:09;4.35;;;1.13;;
72557;SDS011;60583;50.094;8.748;2022-12-29T05:27:35;3.22;;;1.10;;
72557;SDS011;60583;50.094;8.748;2022-12-29T05:30:00;4.30;;;1.10;;
72557;SDS011;60583;50.094;8.748;2022-12-29T05:32:26;3.22;;;1.08;;
72557;SDS011;60583;50.094;8.748;2022-12-29T05:34:51;2.88;;;1.20;;
72557;SDS011;60583;50.094;8.748;2022-12-29T05:37:17;2.38;;;1.02;;
72557;SDS011;60583;50.094;8.748;2022-12-29T05:39:42;2.92;;;0.90;;
72557;SDS011;60583;50.094;8.748;2022-12-29T05:42:07;2.40;;;0.98;;
72557;SDS011;60583;50.094;8.748;2022-12-29T05:44:33;4.03;;;1.55;;
72557;SDS011;60583;50.094;8.748;2022-12-29T05:46:58;3.38;;;1.13;;
72557;SDS011;60583;50.094;8.748;2022-12-29T05:49:24;2.40;;;1.30;;
72557;SDS011;60583;50.094;8.748;2022-12-29T05:51:49;2.60;;;1.00;;
72557;SDS011;60583;50.094;8.748;2022-12-29T05:54:14;3.75;;;1.27;;
72557;SDS011;60583;50.094;8.748;2022-12-29T05:56:40;2.53;;;1.10;;
72557;SDS011;60583;50.094;8.748;2022-12-29T05:59:05;3.72;;;1.10;;
72557;SDS011;60583;50.094;8.748;2022-12-29T06:01:31;2.58;;;1.30;;
72557;SDS011;60583;50.094;8.748;2022-12-29T06:03:56;2.97;;;1.10;;
72557;SDS011;60583;50.094;8.748;2022-12-29T06:06:21;2.88;;;1.17;;
72557;SDS011;60583;50.094;8.748;2022-12-29T06:08:47;3.47;;;1.23;;
72557;SDS011;60583;50.094;8.748;2022-12-29T06:11:12;3.45;;;1.08;;
72557;SDS011;60583;50.094;8.748;2022-12-29T06:13:38;3.13;;;1.30;;
72557;SDS011;60583;50.094;8.748;2022-12-29T06:16:03;2.97;;;1.30;;
72557;SDS011;60583;50.094;8.748;2022-12-29T06:18:29;2.75;;;1.00;;
72557;SDS011;60583;50.094;8.748;2022-12-29T06:20:58;2.70;;;1.02;;
72557;SDS011;60583;50.094;8.748;2022-12-29T06:23:25;2.92;;;1.10;;
72557;SDS011;60583;50.094;8.748;2022-12-29T06:25:51;4.55;;;1.17;;
72557;SDS011;60583;50.094;8.748;2022-12-29T06:28:16;3.08;;;1.10;;
72557;SDS011;60583;50.094;8.748;2022-12-29T06:30:43;2.85;;;1.17;;
72557;SDS011;60583;50.094;8.748;2022-12-29T06:33:10;2.88;;;1.10;;
72557;SDS011;60583;50.094;8.748;2022-12-29T06:35:36;2.83;;;1.30;;
72557;SDS011;60583;50.094;8.748;2022-12-29T06:38:01;3.13;;;1.15;;
72557;SDS011;60583;50.094;8.748;2022-12-29T06:40:27;5.00;;;1.10;;
72557;SDS011;60583;50.094;8.748;2022-12-29T06:42:52;4.15;;;1.00;;
72557;SDS011;60583;50.094;8.748;2022-12-29T06:45:17;4.45;;;1.27;;
72557;SDS011;60583;50.094;8.748;2022-12-29T06:47:43;3.10;;;1.20;;
72557;SDS011;60583;50.094;8.748;2022-12-29T06:50:08;4.63;;;1.10;;
72557;SDS011;60583;50.094;8.748;2022-12-29T06:52:34;3.20;;;1.17;;
72557;SDS011;60583;50.094;8.748;2022-12-29T06:54:59;2.35;;;1.02;;
72557;SDS011;60583;50.094;8.748;2022-12-29T06:57:24;4.20;;;1.17;;
72557;SDS011;60583;50.094;8.748;2022-12-29T06:59:51;3.38;;;1.20;;
72557;SDS011;60583;50.094;8.748;2022-12-29T07:02:17;4.60;;;1.48;;
72557;SDS011;60583;50.094;8.748;2022-12-29T07:04:44;3.17;;;1.27;;
72557;SDS011;60583;50.094;8.748;2022-12-29T07:07:10;3.05;;;1.30;;
72557;SDS011;60583;50.094;8.748;2022-12-29T07:09:35;3.45;;;1.35;;
72557;SDS011;60583;50.094;8.748;2022-12-29T07:12:01;5.47;;;1.50;;
72557;SDS011;60583;50.094;8.748;2022-12-29T07:14:26;3.85;;;1.33;;
72557;SDS011;60583;50.094;8.748;2022-12-29T07:16:51;3.75;;;1.50;;
72557;SDS011;60583;50.094;8.748;2022-12-29T07:19:17;6.55;;;1.55;;
72557;SDS011;60583;50.094;8.748;2022-12-29T07:21:42;4.43;;;1.50;;
72557;SDS011;60583;50.094;8.748;2022-12-29T07:24:08;5.47;;;1.63;;
72557;SDS011;60583;50.094;8.748;2022-12-29T07:26:34;3.17;;;1.42;;
72557;SDS011;60583;50.094;8.748;2022-12-29T07:29:01;4.18;;;1.30;;
72557;SDS011;60583;50.094;8.748;2022-12-29T07:31:27;4.45;;;1.55;;
72557;SDS011;60583;50.094;8.748;2022-12-29T07:33:53;3.92;;;1.73;;
72557;SDS011;60583;50.094;8.748;2022-12-29T07:36:19;4.05;;;2.03;;
72557;SDS011;60583;50.094;8.748;2022-12-29T07:38:44;5.47;;;2.50;;
72557;SDS011;60583;50.094;8.748;2022-12-29T07:41:10;4.03;;;1.88;;
72557;SDS011;60583;50.094;8.748;2022-12-29T07:43:35;4.85;;;1.85;;
72557;SDS011;60583;50.094;8.748;2022-12-29T07:46:01;5.13;;;1.40;;
72557;SDS011;60583;50.094;8.748;2022-12-29T07:48:26;3.83;;;1.40;;
72557;SDS011;60583;50.094;8.748;2022-12-29T07:50:52;3.97;;;1.30;;
72557;SDS011;60583;50.094;8.748;2022-12-29T07:53:18;3.75;;;1.45;;
72557;SDS011;60583;50.094;8.748;2022-12-29T07:55:43;3.78;;;1.48;;
72557;SDS011;60583;50.094;8.748;2022-12-29T07:58:09;4.07;;;1.48;;
72557;SDS011;60583;50.094;8.748;2022-12-29T08:00:34;4.80;;;1.73;;
72557;SDS011;60583;50.094;8.748;2022-12-29T08:03:00;4.72;;;1.80;;
72557;SDS011;60583;50.094;8.748;2022-12-29T08:09:15;3.83;;;1.70;;
72557;SDS011;60583;50.094;8.748;2022-12-29T08:11:41;3.90;;;1.60;;
72557;SDS011;60583;50.094;8.748;2022-12-29T08:14:07;4.30;;;1.63;;
72557;SDS011;60583;50.094;8.748;2022-12-29T08:16:33;3.88;;;1.92;;
72557;SDS011;60583;50.094;8.748;2022-12-29T08:18:58;4.10;;;1.73;;
72557;SDS011;60583;50.094;8.748;2022-12-29T08:21:24;5.70;;;1.80;;
72557;SDS011;60583;50.094;8.748;2022-12-29T08:23:49;3.58;;;1.40;;
72557;SDS011;60583;50.094;8.748;2022-12-29T08:26:15;3.53;;;1.27;;
72557;SDS011;60583;50.094;8.748;2022-12-29T08:28:40;3.97;;;1.50;;
72557;SDS011;60583;50.094;8.748;2022-12-29T08:31:06;5.93;;;1.90;;
72557;SDS011;60583;50.094;8.748;2022-12-29T08:33:31;3.92;;;2.05;;
72557;SDS011;60583;50.094;8.748;2022-12-29T08:36:03;8.13;;;1.67;;
72557;SDS011;60583;50.094;8.748;2022-12-29T08:38:30;3.78;;;1.63;;
72557;SDS011;60583;50.094;8.748;2022-12-29T08:40:56;5.30;;;1.90;;
72557;SDS011;60583;50.094;8.748;2022-12-29T08:43:22;4.95;;;1.60;;
72557;SDS011;60583;50.094;8.748;2022-12-29T08:45:48;3.42;;;1.50;;
72557;SDS011;60583;50.094;8.748;2022-12-29T08:48:13;4.28;;;2.30;;
72557;SDS011;60583;50.094;8.748;2022-12-29T08:50:38;5.78;;;2.00;;
72557;SDS011;60583;50.094;8.748;2022-12-29T08:53:04;4.38;;;1.83;;
72557;SDS011;60583;50.094;8.748;2022-12-29T08:55:29;4.03;;;1.60;;
72557;SDS011;60583;50.094;8.748;2022-12-29T08:57:54;4.57;;;1.75;;
72557;SDS011;60583;50.094;8.748;2022-12-29T09:00:20;4.63;;;1.77;;
72557;SDS011;60583;50.094;8.748;2022-12-29T09:02:45;3.85;;;1.83;;
72557;SDS011;60583;50.094;8.748;2022-12-29T09:05:11;4.03;;;1.88;;
72557;SDS011;60583;50.094;8.748;2022-12-29T09:07:37;4.53;;;1.70;;
72557;SDS011;60583;50.094;8.748;2022-12-29T09:10:02;4.25;;;1.80;;
72557;SDS011;60583;50.094;8.748;2022-12-29T09:12:28;4.30;;;2.00;;
72557;SDS011;60583;50.094;8.748;2022-12-29T09:14:54;5.63;;;1.70;;
72557;SDS011;60583;50.094;8.748;2022-12-29T09:17:19;4.38;;;2.00;;
72557;SDS011;60583;50.094;8.748;2022-12-29T09:20:03;4.28;;;2.10;;
72557;SDS011;60583;50.094;8.748;2022-12-29T09:22:29;5.47;;;2.10;;
72557;SDS011;60583;50.094;8.748;2022-12-29T09:24:54;5.03;;;2.10;;
72557;SDS011;60583;50.094;8.748;2022-12-29T09:27:20;3.95;;;2.00;;
72557;SDS011;60583;50.094;8.748;2022-12-29T09:29:45;7.30;;;2.30;;
72557;SDS011;60583;50.094;8.748;2022-12-29T09:32:10;5.45;;;2.17;;
72557;SDS011;60583;50.094;8.748;2022-12-29T09:34:36;5.97;;;2.50;;
72557;SDS011;60583;50.094;8.748;2022-12-29T09:37:01;6.20;;;2.35;;
72557;SDS011;60583;50.094;8.748;2022-12-29T09:39:26;6.55;;;2.30;;
72557;SDS011;60583;50.094;8.748;2022-12-29T09:41:56;6.63;;;2.60;;
72557;SDS011;60583;50.094;8.748;2022-12-29T09:44:39;5.63;;;2.30;;
72557;SDS011;60583;50.094;8.748;2022-12-29T09:47:13;5.65;;;2.20;;
72557;SDS011;60583;50.094;8.748;2022-12-29T09:52:22;5.80;;;2.47;;
72557;SDS011;60583;50.094;8.748;2022-12-29T09:54:58;6.95;;;2.85;;
72557;SDS011;60583;50.094;8.748;2022-12-29T09:57:29;5.63;;;2.85;;
72557;SDS011;60583;50.094;8.748;2022-12-29T10:00:08;6.78;;;2.78;;
72557;SDS011;60583;50.094;8.748;2022-12-29T10:05:39;6.85;;;2.47;;
72557;SDS011;60583;50.094;8.748;2022-12-29T10:08:23;6.47;;;2.65;;
72557;SDS011;60583;50.094;8.748;2022-12-29T10:13:54;4.93;;;1.70;;
72557;SDS011;60583;50.094;8.748;2022-12-29T10:16:33;4.10;;;1.73;;
72557;SDS011;60583;50.094;8.748;2022-12-29T10:19:34;3.28;;;0.98;;
72557;SDS011;60583;50.094;8.748;2022-12-29T10:22:09;4.82;;;1.20;;
72557;SDS011;60583;50.094;8.748;2022-12-29T10:24:57;3.83;;;0.90;;
72557;SDS011;60583;50.094;8.748;2022-12-29T10:29:55;4.35;;;1.10;;
72557;SDS011;60583;50.094;8.748;2022-12-29T10:32:31;3.25;;;1.10;;
72557;SDS011;60583;50.094;8.748;2022-12-29T10:35:43;3.80;;;1.00;;
72557;SDS011;60583;50.094;8.748;2022-12-29T10:41:36;2.90;;;0.90;;
72557;SDS011;60583;50.094;8.748;2022-12-29T10:44:06;3.38;;;0.90;;
72557;SDS011;60583;50.094;8.748;2022-12-29T10:46:35;4.90;;;0.93;;
72557;SDS011;60583;50.094;8.748;2022-12-29T10:49:02;2.80;;;1.48;;
72557;SDS011;60583;50.094;8.748;2022-12-29T10:51:36;2.70;;;0.93;;
72557;SDS011;60583;50.094;8.748;2022-12-29T10:54:06;3.45;;;1.13;;
72557;SDS011;60583;50.094;8.748;2022-12-29T10:56:42;3.53;;;1.02;;
72557;SDS011;60583;50.094;8.748;2022-12-29T11:04:46;2.75;;;1.02;;
72557;SDS011;60583;50.094;8.748;2022-12-29T11:07:17;2.78;;;1.08;;
72557;SDS011;60583;50.094;8.748;2022-12-29T11:09:44;2.50;;;0.90;;
72557;SDS011;60583;50.094;8.748;2022-12-29T11:12:24;2.33;;;1.00;;
72557;SDS011;60583;50.094;8.748;2022-12-29T11:15:02;2.88;;;0.77;;
72557;SDS011;60583;50.094;8.748;2022-12-29T11:17:47;2.83;;;0.90;;
72557;SDS011;60583;50.094;8.748;2022-12-29T11:22:59;2.67;;;0.90;;
72557;SDS011;60583;50.094;8.748;2022-12-29T11:25:25;1.73;;;0.70;;
72557;SDS011;60583;50.094;8.748;2022-12-29T11:27:57;2.90;;;0.80;;
72557;SDS011;60583;50.094;8.748;2022-12-29T11:30:27;3.75;;;1.13;;
72557;SDS011;60583;50.094;8.748;2022-12-29T11:32:56;4.15;;;1.00;;
72557;SDS011;60583;50.094;8.748;2022-12-29T11:35:32;2.92;;;1.00;;
72557;SDS011;60583;50.094;8.748;2022-12-29T11:38:00;4.55;;;1.45;;
72557;SDS011;60583;50.094;8.748;2022-12-29T11:40:27;3.70;;;1.00;;
72557;SDS011;60583;50.094;8.748;2022-12-29T11:42:55;3.45;;;1.05;;
72557;SDS011;60583;50.094;8.748;2022-12-29T11:45:27;3.97;;;1.45;;
72557;SDS011;60583;50.094;8.748;2022-12-29T11:48:01;2.80;;;0.98;;
72557;SDS011;60583;50.094;8.748;2022-12-29T11:50:33;3.60;;;1.00;;
72557;SDS011;60583;50.094;8.748;2022-12-29T11:53:20;3.38;;;1.00;;
72557;SDS011;60583;50.094;8.748;2022-12-29T11:55:52;3.55;;;0.90;;
72557;SDS011;60583;50.094;8.748;2022-12-29T11:58:27;4.63;;;0.93;;
72557;SDS011;60583;50.094;8.748;2022-12-29T12:00:53;3.03;;;0.90;;
72557;SDS011;60583;50.094;8.748;2022-12-29T12:03:23;3.38;;;0.95;;
72557;SDS011;60583;50.094;8.748;2022-12-29T12:06:01;4.75;;;1.00;;
72557;SDS011;60583;50.094;8.748;2022-12-29T12:08:33;3.03;;;0.90;;
72557;SDS011;60583;50.094;8.748;2022-12-29T12:16:15;2.78;;;0.80;;
72557;SDS011;60583;50.094;8.748;2022-12-29T12:26:55;4.28;;;0.90;;
72557;SDS011;60583;50.094;8.748;2022-12-29T12:29:37;3.40;;;0.80;;
72557;SDS011;60583;50.094;8.748;2022-12-29T12:34:42;2.85;;;0.80;;
72557;SDS011;60583;50.094;8.748;2022-12-29T12:37:18;2.47;;;0.70;;
72557;SDS011;60583;50.094;8.748;2022-12-29T12:48:32;3.45;;;1.35;;
72557;SDS011;60583;50.094;8.748;2022-12-29T12:53:45;2.85;;;0.90;;
72557;SDS011;60583;50.094;8.748;2022-12-29T12:59:15;2.95;;;0.90;;
72557;SDS011;60583;50.094;8.748;2022-12-29T13:10:19;3.40;;;1.00;;
72557;SDS011;60583;50.094;8.748;2022-12-29T13:13:09;3.08;;;0.90;;
72557;SDS011;60583;50.094;8.748;2022-12-29T13:15:50;3.22;;;1.00;;
72557;SDS011;60583;50.094;8.748;2022-12-29T13:26:54;4.15;;;1.35;;
72557;SDS011;60583;50.094;8.748;2022-12-29T13:34:57;2.78;;;1.00;;
72557;SDS011;60583;50.094;8.748;2022-12-29T13:37:36;4.22;;;1.00;;
72557;SDS011;60583;50.094;8.748;2022-12-29T13:40:16;3.60;;;0.90;;
72557;SDS011;60583;50.094;8.748;2022-12-29T13:42:46;3.20;;;1.08;;
72557;SDS011;60583;50.094;8.748;2022-12-29T13:45:16;2.80;;;0.88;;
72557;SDS011;60583;50.094;8.748;2022-12-29T13:47:45;2.78;;;0.80;;
72557;SDS011;60583;50.094;8.748;2022-12-29T13:50:19;2.90;;;0.80;;
72557;SDS011;60583;50.094;8.748;2022-12-29T13:52:55;2.95;;;0.90;;
72557;SDS011;60583;50.094;8.748;2022-12-29T13:55:44;3.85;;;1.02;;
72557;SDS011;60583;50.094;8.748;2022-12-29T14:00:48;2.67;;;0.98;;
72557;SDS011;60583;50.094;8.748;2022-12-29T14:06:27;4.55;;;1.30;;
72557;SDS011;60583;50.094;8.748;2022-12-29T14:11:34;3.72;;;1.33;;
72557;SDS011;60583;50.094;8.748;2022-12-29T14:14:23;5.68;;;2.20;;
72557;SDS011;60583;50.094;8.748;2022-12-29T14:16:53;4.85;;;1.77;;
72557;SDS011;60583;50.094;8.748;2022-12-29T14:19:21;2.92;;;1.10;;
72557;SDS011;60583;50.094;8.748;2022-12-29T14:21:52;3.67;;;1.30;;
72557;SDS011;60583;50.094;8.748;2022-12-29T14:24:26;3.15;;;1.10;;
72557;SDS011;60583;50.094;8.748;2022-12-29T14:26:52;3.13;;;1.00;;
72557;SDS011;60583;50.094;8.748;2022-12-29T14:31:48;2.78;;;1.20;;
72557;SDS011;60583;50.094;8.748;2022-12-29T14:34:15;3.28;;;1.10;;
72557;SDS011;60583;50.094;8.748;2022-12-29T14:36:59;3.70;;;1.20;;
72557;SDS011;60583;50.094;8.748;2022-12-29T14:39:45;3.60;;;1.08;;
72557;SDS011;60583;50.094;8.748;2022-12-29T14:47:32;2.25;;;1.02;;
72557;SDS011;60583;50.094;8.748;2022-12-29T14:50:19;4.25;;;1.10;;
72557;SDS011;60583;50.094;8.748;2022-12-29T14:58:19;4.28;;;1.10;;
72557;SDS011;60583;50.094;8.748;2022-12-29T15:00:50;3.63;;;1.00;;
72557;SDS011;60583;50.094;8.748;2022-12-29T15:05:50;6.40;;;1.20;;
72557;SDS011;60583;50.094;8.748;2022-12-29T15:08:22;5.03;;;1.73;;
72557;SDS011;60583;50.094;8.748;2022-12-29T15:10:54;3.53;;;1.20;;
72557;SDS011;60583;50.094;8.748;2022-12-29T15:13:24;2.83;;;1.00;;
72557;SDS011;60583;50.094;8.748;2022-12-29T15:15:57;4.32;;;1.00;;
72557;SDS011;60583;50.094;8.748;2022-12-29T15:18:26;4.18;;;1.00;;
72557;SDS011;60583;50.094;8.748;2022-12-29T15:21:05;4.68;;;1.10;;
72557;SDS011;60583;50.094;8.748;2022-12-29T15:23:32;4.25;;;0.93;;
72557;SDS011;60583;50.094;8.748;2022-12-29T15:26:06;3.67;;;1.10;;
72557;SDS011;60583;50.094;8.748;2022-12-29T15:28:37;3.28;;;0.90;;
72557;SDS011;60583;50.094;8.748;2022-12-29T15:31:05;4.05;;;0.85;;
72557;SDS011;60583;50.094;8.748;2022-12-29T15:33:37;5.78;;;1.30;;
72557;SDS011;60583;50.094;8.748;2022-12-29T15:36:05;5.05;;;0.80;;
72557;SDS011;60583;50.094;8.748;2022-12-29T15:38:38;4.47;;;1.23;;
72557;SDS011;60583;50.094;8.748;2022-12-29T15:41:11;4.47;;;1.10;;
72557;SDS011;60583;50.094;8.748;2022-12-29T15:44:23;5.07;;;1.13;;
72557;SDS011;60583;50.094;8.748;2022-12-29T15:46:53;4.35;;;1.10;;
72557;SDS011;60583;50.094;8.748;2022-12-29T15:49:18;4.00;;;1.00;;
72557;SDS011;60583;50.094;8.748;2022-12-29T15:51:45;3.03;;;0.90;;
72557;SDS011;60583;50.094;8.748;2022-12-29T15:54:17;3.75;;;0.90;;
72557;SDS011;60583;50.094;8.748;2022-12-29T15:56:45;4.25;;;1.00;;
72557;SDS011;60583;50.094;8.748;2022-12-29T15:59:22;3.78;;;1.00;;
72557;SDS011;60583;50.094;8.748;2022-12-29T16:01:49;4.20;;;1.27;;
72557;SDS011;60583;50.094;8.748;2022-12-29T16:04:15;4.00;;;1.30;;
72557;SDS011;60583;50.094;8.748;2022-12-29T16:06:44;5.32;;;1.20;;
72557;SDS011;60583;50.094;8.748;2022-12-29T16:09:28;3.25;;;1.08;;
72557;SDS011;60583;50.094;8.748;2022-12-29T16:11:59;5.13;;;1.35;;
72557;SDS011;60583;50.094;8.748;2022-12-29T16:14:32;5.53;;;1.80;;
72557;SDS011;60583;50.094;8.748;2022-12-29T16:17:04;7.18;;;1.58;;
72557;SDS011;60583;50.094;8.748;2022-12-29T16:19:34;4.22;;;1.30;;
72557;SDS011;60583;50.094;8.748;2022-12-29T16:22:01;4.82;;;1.13;;
72557;SDS011;60583;50.094;8.748;2022-12-29T16:24:34;5.20;;;1.27;;
72557;SDS011;60583;50.094;8.748;2022-12-29T16:29:55;3.75;;;1.40;;
72557;SDS011;60583;50.094;8.748;2022-12-29T16:32:25;5.38;;;1.20;;
72557;SDS011;60583;50.094;8.748;2022-12-29T16:35:38;3.13;;;1.00;;
72557;SDS011;60583;50.094;8.748;2022-12-29T16:37:49;3.63;;;1.10;;
72557;SDS011;60583;50.094;8.748;2022-12-29T16:40:37;3.92;;;1.38;;
72557;SDS011;60583;50.094;8.748;2022-12-29T16:43:18;4.03;;;1.33;;
72557;SDS011;60583;50.094;8.748;2022-12-29T16:46:18;4.85;;;1.23;;
72557;SDS011;60583;50.094;8.748;2022-12-29T16:48:53;3.45;;;1.00;;
72557;SDS011;60583;50.094;8.748;2022-12-29T16:51:30;4.43;;;1.17;;
72557;SDS011;60583;50.094;8.748;2022-12-29T16:53:58;4.30;;;1.42;;
72557;SDS011;60583;50.094;8.748;2022-12-29T16:56:32;6.90;;;1.10;;
72557;SDS011;60583;50.094;8.748;2022-12-29T16:59:06;3.67;;;1.10;;
72557;SDS011;60583;50.094;8.748;2022-12-29T17:01:53;3.58;;;1.40;;
72557;SDS011;60583;50.094;8.748;2022-12-29T17:04:20;4.50;;;1.30;;
72557;SDS011;60583;50.094;8.748;2022-12-29T17:06:45;3.28;;;0.90;;
72557;SDS011;60583;50.094;8.748;2022-12-29T17:09:21;3.35;;;1.20;;
72557;SDS011;60583;50.094;8.748;2022-12-29T17:11:50;3.45;;;1.10;;
72557;SDS011;60583;50.094;8.748;2022-12-29T17:16:44;2.85;;;0.93;;
72557;SDS011;60583;50.094;8.748;2022-12-29T17:19:11;4.13;;;1.08;;
72557;SDS011;60583;50.094;8.748;2022-12-29T17:21:50;3.72;;;1.10;;
72557;SDS011;60583;50.094;8.748;2022-12-29T17:24:16;3.83;;;1.00;;
72557;SDS011;60583;50.094;8.748;2022-12-29T17:26:47;3.05;;;1.05;;
72557;SDS011;60583;50.094;8.748;2022-12-29T17:29:23;5.43;;;1.65;;